Gaslog Skagen — ZCEJ7 — position and weather

sailwx.info

Track history (hours):
 
Tides and Currents Weather Stations Pressure Air Temp Water Temp Dewpoint Dewpoint Depression Visibility Wind Speed Wind Dir Waves Ship Positions

Gaslog Skagen

Last reported at 2017-Dec-14 18:16 UTC. Time now 2018-Jan-23 04:17 UTC.
Position N 27°39' W 014°15'.
Warning: this ship's position is 39 days out of date.

Length 285 m; draft 11.4 m.

Type: Ship (hazmat cat D). MMSI: 310664000.

Date/timePositionNaut miles runAvg speedWind from/ knotsBaromVisibWave heightAir tempDewpointWater temp
2017-Dec-14 18:16N 27°39' W 014°15'4 7.9
2017-Dec-14 17:48N 27°40' W 014°11'1 3.4
2017-Dec-14 17:27N 27°40' W 014°10'1011.2
2017-Dec-14 16:34N 27°44' W 013°60'612.9
2017-Dec-14 16:06N 27°46' W 013°53'213.0
2017-Dec-14 15:59N 27°46' W 013°52'1212.6
2017-Dec-14 15:01N 27°52' W 013°39'713.2
2017-Dec-14 14:28N 27°58' W 013°35'713.4
2017-Dec-14 13:58N 28°04' W 013°31'713.4
2017-Dec-14 13:28N 28°09' W 013°27'713.7
2017-Dec-14 12:59N 28°15' W 013°23'714.3
2017-Dec-14 12:30N 28°21' W 013°19'714.0
2017-Dec-14 11:59N 28°27' W 013°14'814.2
2017-Dec-14 11:27N 28°33' W 013°10'714.1
2017-Dec-14 10:59N 28°39' W 013°06'714.1
2017-Dec-14 10:29N 28°45' W 013°02'914.1
2017-Dec-14 09:51N 28°53' W 012°56'714.0
2017-Dec-14 09:22N 28°58' W 012°52'713.9
2017-Dec-14 08:51N 29°04' W 012°48'513.8
2017-Dec-14 08:31N 29°08' W 012°45'813.8
2017-Dec-14 07:56N 29°15' W 012°40'54013.3
2017-Dec-12 15:19N 35°58' W 005°34'3 9.4
2017-Dec-12 14:59N 35°59' W 005°31'7 7.6
2017-Dec-12 14:05N 36°02' W 005°23'1 8.8
2017-Dec-12 13:57N 36°03' W 005°23'4 0.4
2017-Dec-12 02:51N 36°08' W 005°23'0 0.1
2017-Dec-12 02:30N 36°08' W 005°23'0 0.0
2017-Dec-12 02:00N 36°08' W 005°23'0 0.0
2017-Dec-12 01:30N 36°08' W 005°23'0 0.0
2017-Dec-12 01:00N 36°08' W 005°23'0 0.0
2017-Dec-12 00:30N 36°08' W 005°23'0 0.1
2017-Dec-12 00:00N 36°08' W 005°23'0 0.0
2017-Dec-11 23:30N 36°08' W 005°23'0 0.0
2017-Dec-11 23:00N 36°08' W 005°23'0 0.0
2017-Dec-11 22:30N 36°08' W 005°23'0 0.1
2017-Dec-11 21:58N 36°08' W 005°23'0 0.1
2017-Dec-11 21:30N 36°08' W 005°23'0 0.1
2017-Dec-11 20:57N 36°08' W 005°23'2 0.6
2017-Dec-11 17:42N 36°06' W 005°22'212 9.5
2017-Dec-10 19:16N 37°09' W 001°09'517.6
2017-Dec-10 18:59N 37°12' W 001°05'917.5
2017-Dec-10 18:30N 37°18' W 000°57'817.0
2017-Dec-10 18:00N 37°24' W 000°49'816.7
2017-Dec-10 17:30N 37°29' W 000°41'816.8
2017-Dec-10 17:00N 37°35' W 000°33'816.6
2017-Dec-10 16:30N 37°42' W 000°28'916.5
2017-Dec-10 15:58N 37°49' W 000°21'1016.8
2017-Dec-10 15:22N 37°58' W 000°14'616.8
2017-Dec-10 15:00N 38°03' W 000°11'  
2017-Dec-08 00:17N 37°45' W 000°20'516.4
2017-Dec-07 23:59N 37°41' W 000°24'816.4
2017-Dec-07 23:30N 37°35' W 000°30'1016.2
2017-Dec-07 22:55N 37°28' W 000°39'716.1
2017-Dec-07 22:30N 37°24' W 000°45'1515.8
2017-Dec-07 21:35N 37°15' W 000°59'215.9
2017-Dec-07 21:27N 37°13' W 001°01'  
Track history (hours):
 
Tides and Currents Weather Stations Pressure Air Temp Water Temp Dewpoint Dewpoint Depression Visibility Wind Speed Wind Dir Waves Ship Positions

Gaslog Skagen

Last reported at 2017-Dec-14 18:16 UTC. Time now 2018-Jan-23 04:17 UTC.
Position N 27°39' W 014°15'.
Warning: this ship's position is 39 days out of date.

Length 285 m; draft 11.4 m.

Type: Ship (hazmat cat D). MMSI: 310664000.

Date/timePositionNaut miles runAvg speedWind from/ knotsBaromVisibWave heightAir tempDewpointWater temp
2017-Dec-14 18:16N 27°39' W 014°15'4 7.9
2017-Dec-14 17:48N 27°40' W 014°11'1 3.4
2017-Dec-14 17:27N 27°40' W 014°10'1011.2
2017-Dec-14 16:34N 27°44' W 013°60'612.9
2017-Dec-14 16:06N 27°46' W 013°53'213.0
2017-Dec-14 15:59N 27°46' W 013°52'1212.6
2017-Dec-14 15:01N 27°52' W 013°39'713.2
2017-Dec-14 14:28N 27°58' W 013°35'713.4
2017-Dec-14 13:58N 28°04' W 013°31'713.4
2017-Dec-14 13:28N 28°09' W 013°27'713.7
2017-Dec-14 12:59N 28°15' W 013°23'714.3
2017-Dec-14 12:30N 28°21' W 013°19'714.0
2017-Dec-14 11:59N 28°27' W 013°14'814.2
2017-Dec-14 11:27N 28°33' W 013°10'714.1
2017-Dec-14 10:59N 28°39' W 013°06'714.1
2017-Dec-14 10:29N 28°45' W 013°02'914.1
2017-Dec-14 09:51N 28°53' W 012°56'714.0
2017-Dec-14 09:22N 28°58' W 012°52'713.9
2017-Dec-14 08:51N 29°04' W 012°48'513.8
2017-Dec-14 08:31N 29°08' W 012°45'813.8
2017-Dec-14 07:56N 29°15' W 012°40'54013.3
2017-Dec-12 15:19N 35°58' W 005°34'3 9.4
2017-Dec-12 14:59N 35°59' W 005°31'7 7.6
2017-Dec-12 14:05N 36°02' W 005°23'1 8.8
2017-Dec-12 13:57N 36°03' W 005°23'4 0.4
2017-Dec-12 02:51N 36°08' W 005°23'0 0.1
2017-Dec-12 02:30N 36°08' W 005°23'0 0.0
2017-Dec-12 02:00N 36°08' W 005°23'0 0.0
2017-Dec-12 01:30N 36°08' W 005°23'0 0.0
2017-Dec-12 01:00N 36°08' W 005°23'0 0.0
2017-Dec-12 00:30N 36°08' W 005°23'0 0.1
2017-Dec-12 00:00N 36°08' W 005°23'0 0.0
2017-Dec-11 23:30N 36°08' W 005°23'0 0.0
2017-Dec-11 23:00N 36°08' W 005°23'0 0.0
2017-Dec-11 22:30N 36°08' W 005°23'0 0.1
2017-Dec-11 21:58N 36°08' W 005°23'0 0.1
2017-Dec-11 21:30N 36°08' W 005°23'0 0.1
2017-Dec-11 20:57N 36°08' W 005°23'2 0.6
2017-Dec-11 17:42N 36°06' W 005°22'212 9.5
2017-Dec-10 19:16N 37°09' W 001°09'517.6
2017-Dec-10 18:59N 37°12' W 001°05'917.5
2017-Dec-10 18:30N 37°18' W 000°57'817.0
2017-Dec-10 18:00N 37°24' W 000°49'816.7
2017-Dec-10 17:30N 37°29' W 000°41'816.8
2017-Dec-10 17:00N 37°35' W 000°33'816.6
2017-Dec-10 16:30N 37°42' W 000°28'916.5
2017-Dec-10 15:58N 37°49' W 000°21'1016.8
2017-Dec-10 15:22N 37°58' W 000°14'616.8
2017-Dec-10 15:00N 38°03' W 000°11'  
2017-Dec-08 00:17N 37°45' W 000°20'516.4
2017-Dec-07 23:59N 37°41' W 000°24'816.4
2017-Dec-07 23:30N 37°35' W 000°30'1016.2
2017-Dec-07 22:55N 37°28' W 000°39'716.1
2017-Dec-07 22:30N 37°24' W 000°45'1515.8
2017-Dec-07 21:35N 37°15' W 000°59'215.9
2017-Dec-07 21:27N 37°13' W 001°01'  

Dump ship's entire track history